sensor_id;sensor_type;location;lat;lon;timestamp;temperature;humidity
21115;DHT22;10715;48.546;9.896;2023-09-18T00:00:47;14.90;99.90
21115;DHT22;10715;48.546;9.896;2023-09-18T00:03:18;14.90;99.90
21115;DHT22;10715;48.546;9.896;2023-09-18T00:05:47;14.90;99.90
21115;DHT22;10715;48.546;9.896;2023-09-18T00:08:17;14.80;99.90
21115;DHT22;10715;48.546;9.896;2023-09-18T00:10:52;14.80;99.90
21115;DHT22;10715;48.546;9.896;2023-09-18T00:13:18;14.80;99.90
21115;DHT22;10715;48.546;9.896;2023-09-18T00:15:44;14.70;99.90
21115;DHT22;10715;48.546;9.896;2023-09-18T00:18:15;14.70;99.90
21115;DHT22;10715;48.546;9.896;2023-09-18T00:20:41;14.70;99.90
21115;DHT22;10715;48.546;9.896;2023-09-18T00:23:08;14.70;99.90
21115;DHT22;10715;48.546;9.896;2023-09-18T00:25:34;14.70;99.90
21115;DHT22;10715;48.546;9.896;2023-09-18T00:28:00;14.70;99.90
21115;DHT22;10715;48.546;9.896;2023-09-18T00:30:25;14.60;99.90
21115;DHT22;10715;48.546;9.896;2023-09-18T00:32:51;14.60;99.90
21115;DHT22;10715;48.546;9.896;2023-09-18T00:35:17;14.60;99.90
21115;DHT22;10715;48.546;9.896;2023-09-18T00:37:43;14.50;99.90
21115;DHT22;10715;48.546;9.896;2023-09-18T00:40:09;14.50;99.90
21115;DHT22;10715;48.546;9.896;2023-09-18T00:42:36;14.50;99.90
21115;DHT22;10715;48.546;9.896;2023-09-18T00:45:02;14.50;99.90
21115;DHT22;10715;48.546;9.896;2023-09-18T00:47:28;14.50;99.90
21115;DHT22;10715;48.546;9.896;2023-09-18T00:49:54;14.40;99.90
21115;DHT22;10715;48.546;9.896;2023-09-18T00:52:22;14.40;99.90
21115;DHT22;10715;48.546;9.896;2023-09-18T00:54:49;14.40;99.90
21115;DHT22;10715;48.546;9.896;2023-09-18T00:57:15;14.40;99.90
21115;DHT22;10715;48.546;9.896;2023-09-18T00:59:41;14.30;99.90
21115;DHT22;10715;48.546;9.896;2023-09-18T01:02:07;14.30;99.90
21115;DHT22;10715;48.546;9.896;2023-09-18T01:04:34;14.30;99.90
21115;DHT22;10715;48.546;9.896;2023-09-18T01:07:00;14.30;99.90
21115;DHT22;10715;48.546;9.896;2023-09-18T01:09:32;14.30;99.90
21115;DHT22;10715;48.546;9.896;2023-09-18T01:14:56;14.30;99.90
21115;DHT22;10715;48.546;9.896;2023-09-18T01:17:23;14.30;99.90
21115;DHT22;10715;48.546;9.896;2023-09-18T01:19:49;14.30;99.90
21115;DHT22;10715;48.546;9.896;2023-09-18T01:22:16;14.30;99.90
21115;DHT22;10715;48.546;9.896;2023-09-18T01:24:43;14.30;99.90
21115;DHT22;10715;48.546;9.896;2023-09-18T01:27:17;14.30;99.90
21115;DHT22;10715;48.546;9.896;2023-09-18T01:29:47;14.20;99.90
21115;DHT22;10715;48.546;9.896;2023-09-18T01:32:13;14.20;99.90
21115;DHT22;10715;48.546;9.896;2023-09-18T01:34:42;14.20;99.90
21115;DHT22;10715;48.546;9.896;2023-09-18T01:37:11;14.20;99.90
21115;DHT22;10715;48.546;9.896;2023-09-18T01:39:38;14.20;99.90
21115;DHT22;10715;48.546;9.896;2023-09-18T01:42:06;14.20;99.90
21115;DHT22;10715;48.546;9.896;2023-09-18T01:44:32;14.30;99.90
21115;DHT22;10715;48.546;9.896;2023-09-18T01:47:00;14.20;99.90
21115;DHT22;10715;48.546;9.896;2023-09-18T01:49:46;14.30;99.90
21115;DHT22;10715;48.546;9.896;2023-09-18T01:52:11;14.30;99.90
21115;DHT22;10715;48.546;9.896;2023-09-18T01:54:37;14.30;99.90
21115;DHT22;10715;48.546;9.896;2023-09-18T01:57:04;14.30;99.90
21115;DHT22;10715;48.546;9.896;2023-09-18T01:59:30;14.40;99.90
21115;DHT22;10715;48.546;9.896;2023-09-18T02:01:56;14.40;99.90
21115;DHT22;10715;48.546;9.896;2023-09-18T02:04:22;14.40;99.90
21115;DHT22;10715;48.546;9.896;2023-09-18T02:06:50;14.50;99.90
21115;DHT22;10715;48.546;9.896;2023-09-18T02:09:16;14.50;99.90
21115;DHT22;10715;48.546;9.896;2023-09-18T02:11:44;14.50;99.90
21115;DHT22;10715;48.546;9.896;2023-09-18T02:14:10;14.60;99.90
21115;DHT22;10715;48.546;9.896;2023-09-18T02:16:40;14.60;99.90
21115;DHT22;10715;48.546;9.896;2023-09-18T02:19:07;14.70;99.90
21115;DHT22;10715;48.546;9.896;2023-09-18T02:21:34;14.70;99.90
21115;DHT22;10715;48.546;9.896;2023-09-18T02:24:00;14.70;99.90
21115;DHT22;10715;48.546;9.896;2023-09-18T02:26:27;14.80;99.90
21115;DHT22;10715;48.546;9.896;2023-09-18T02:28:54;14.90;99.90
21115;DHT22;10715;48.546;9.896;2023-09-18T02:31:20;14.90;99.90
21115;DHT22;10715;48.546;9.896;2023-09-18T02:33:46;15.00;99.90
21115;DHT22;10715;48.546;9.896;2023-09-18T02:36:12;15.00;99.90
21115;DHT22;10715;48.546;9.896;2023-09-18T02:38:38;15.10;99.90
21115;DHT22;10715;48.546;9.896;2023-09-18T02:41:04;15.10;99.90
21115;DHT22;10715;48.546;9.896;2023-09-18T02:43:30;15.20;99.90
21115;DHT22;10715;48.546;9.896;2023-09-18T02:45:55;15.10;99.90
21115;DHT22;10715;48.546;9.896;2023-09-18T02:48:21;15.10;99.90
21115;DHT22;10715;48.546;9.896;2023-09-18T02:50:47;15.20;99.90
21115;DHT22;10715;48.546;9.896;2023-09-18T02:53:23;15.20;99.90
21115;DHT22;10715;48.546;9.896;2023-09-18T02:55:54;15.20;99.90
21115;DHT22;10715;48.546;9.896;2023-09-18T02:58:20;15.20;99.90
21115;DHT22;10715;48.546;9.896;2023-09-18T03:00:48;15.20;99.90
21115;DHT22;10715;48.546;9.896;2023-09-18T03:03:15;15.20;99.90
21115;DHT22;10715;48.546;9.896;2023-09-18T03:05:41;15.30;99.90
21115;DHT22;10715;48.546;9.896;2023-09-18T03:08:08;15.30;99.90
21115;DHT22;10715;48.546;9.896;2023-09-18T03:10:39;15.30;99.90
21115;DHT22;10715;48.546;9.896;2023-09-18T03:13:07;15.30;99.90
21115;DHT22;10715;48.546;9.896;2023-09-18T03:15:33;15.30;99.90
21115;DHT22;10715;48.546;9.896;2023-09-18T03:17:59;15.30;99.90
21115;DHT22;10715;48.546;9.896;2023-09-18T03:20:27;15.30;99.90
21115;DHT22;10715;48.546;9.896;2023-09-18T03:22:56;15.30;99.90
21115;DHT22;10715;48.546;9.896;2023-09-18T03:25:22;15.30;99.90
21115;DHT22;10715;48.546;9.896;2023-09-18T03:27:50;15.30;99.90
21115;DHT22;10715;48.546;9.896;2023-09-18T03:30:16;15.30;99.90
21115;DHT22;10715;48.546;9.896;2023-09-18T03:32:42;15.30;99.90
21115;DHT22;10715;48.546;9.896;2023-09-18T03:35:09;15.20;99.90
21115;DHT22;10715;48.546;9.896;2023-09-18T03:37:46;15.30;99.90
21115;DHT22;10715;48.546;9.896;2023-09-18T03:40:12;15.30;99.90
21115;DHT22;10715;48.546;9.896;2023-09-18T03:42:39;15.20;99.90
21115;DHT22;10715;48.546;9.896;2023-09-18T03:45:06;15.20;99.90
21115;DHT22;10715;48.546;9.896;2023-09-18T03:47:33;15.20;99.90
21115;DHT22;10715;48.546;9.896;2023-09-18T03:49:59;15.20;99.90
21115;DHT22;10715;48.546;9.896;2023-09-18T03:52:25;15.20;99.90
21115;DHT22;10715;48.546;9.896;2023-09-18T03:54:50;15.20;99.90
21115;DHT22;10715;48.546;9.896;2023-09-18T03:57:16;15.20;99.90
21115;DHT22;10715;48.546;9.896;2023-09-18T03:59:42;15.20;99.90
21115;DHT22;10715;48.546;9.896;2023-09-18T04:02:08;15.20;99.90
21115;DHT22;10715;48.546;9.896;2023-09-18T04:04:33;15.10;99.90
21115;DHT22;10715;48.546;9.896;2023-09-18T04:06:59;15.20;99.90
21115;DHT22;10715;48.546;9.896;2023-09-18T04:09:25;15.20;99.90
21115;DHT22;10715;48.546;9.896;2023-09-18T04:11:51;15.20;99.90
21115;DHT22;10715;48.546;9.896;2023-09-18T04:14:17;15.10;99.90
21115;DHT22;10715;48.546;9.896;2023-09-18T04:16:43;15.10;99.90
21115;DHT22;10715;48.546;9.896;2023-09-18T04:19:09;15.10;99.90
21115;DHT22;10715;48.546;9.896;2023-09-18T04:21:35;15.10;99.90
21115;DHT22;10715;48.546;9.896;2023-09-18T04:24:01;15.10;99.90
21115;DHT22;10715;48.546;9.896;2023-09-18T04:26:27;15.10;99.90
21115;DHT22;10715;48.546;9.896;2023-09-18T04:28:57;15.10;99.90
21115;DHT22;10715;48.546;9.896;2023-09-18T04:31:23;15.10;99.90
21115;DHT22;10715;48.546;9.896;2023-09-18T04:33:49;15.20;99.90
21115;DHT22;10715;48.546;9.896;2023-09-18T04:36:15;15.20;99.90
21115;DHT22;10715;48.546;9.896;2023-09-18T04:38:41;15.20;99.90
21115;DHT22;10715;48.546;9.896;2023-09-18T04:41:06;15.20;99.90
21115;DHT22;10715;48.546;9.896;2023-09-18T04:43:34;15.20;99.90
21115;DHT22;10715;48.546;9.896;2023-09-18T04:46:01;15.20;99.90
21115;DHT22;10715;48.546;9.896;2023-09-18T04:48:29;15.20;99.90
21115;DHT22;10715;48.546;9.896;2023-09-18T04:50:56;15.20;99.90
21115;DHT22;10715;48.546;9.896;2023-09-18T04:53:21;15.20;99.90
21115;DHT22;10715;48.546;9.896;2023-09-18T04:55:47;15.20;99.90
21115;DHT22;10715;48.546;9.896;2023-09-18T04:58:15;15.10;99.90
21115;DHT22;10715;48.546;9.896;2023-09-18T05:00:41;15.10;99.90
21115;DHT22;10715;48.546;9.896;2023-09-18T05:03:07;15.10;99.90
21115;DHT22;10715;48.546;9.896;2023-09-18T05:05:34;15.10;99.90
21115;DHT22;10715;48.546;9.896;2023-09-18T05:08:05;15.10;99.90
21115;DHT22;10715;48.546;9.896;2023-09-18T05:10:36;15.10;99.90
21115;DHT22;10715;48.546;9.896;2023-09-18T05:13:02;15.10;99.90
21115;DHT22;10715;48.546;9.896;2023-09-18T05:15:28;15.10;99.90
21115;DHT22;10715;48.546;9.896;2023-09-18T05:17:58;15.10;99.90
21115;DHT22;10715;48.546;9.896;2023-09-18T05:20:26;15.10;99.90
21115;DHT22;10715;48.546;9.896;2023-09-18T05:22:52;15.10;99.90
21115;DHT22;10715;48.546;9.896;2023-09-18T05:25:22;15.10;99.90
21115;DHT22;10715;48.546;9.896;2023-09-18T05:27:52;15.10;99.90
21115;DHT22;10715;48.546;9.896;2023-09-18T05:30:33;15.10;99.90
21115;DHT22;10715;48.546;9.896;2023-09-18T05:33:05;15.10;99.90
21115;DHT22;10715;48.546;9.896;2023-09-18T05:35:44;15.00;99.90
21115;DHT22;10715;48.546;9.896;2023-09-18T05:38:11;15.00;99.90
21115;DHT22;10715;48.546;9.896;2023-09-18T05:40:39;15.00;99.90
21115;DHT22;10715;48.546;9.896;2023-09-18T05:43:05;15.00;99.90
21115;DHT22;10715;48.546;9.896;2023-09-18T05:45:31;15.00;99.90
21115;DHT22;10715;48.546;9.896;2023-09-18T05:47:58;15.00;99.90
21115;DHT22;10715;48.546;9.896;2023-09-18T05:50:30;15.00;99.90
21115;DHT22;10715;48.546;9.896;2023-09-18T05:52:57;15.00;99.90
21115;DHT22;10715;48.546;9.896;2023-09-18T05:55:32;15.00;99.90
21115;DHT22;10715;48.546;9.896;2023-09-18T05:57:58;15.00;99.90
21115;DHT22;10715;48.546;9.896;2023-09-18T06:00:24;15.00;99.90
21115;DHT22;10715;48.546;9.896;2023-09-18T06:02:50;15.00;99.90
21115;DHT22;10715;48.546;9.896;2023-09-18T06:05:17;15.10;99.90
21115;DHT22;10715;48.546;9.896;2023-09-18T06:07:43;15.10;99.90
21115;DHT22;10715;48.546;9.896;2023-09-18T06:10:10;15.10;99.90
21115;DHT22;10715;48.546;9.896;2023-09-18T06:12:38;15.10;99.90
21115;DHT22;10715;48.546;9.896;2023-09-18T06:15:09;15.20;99.90
21115;DHT22;10715;48.546;9.896;2023-09-18T06:17:39;15.20;99.90
21115;DHT22;10715;48.546;9.896;2023-09-18T06:20:06;15.20;99.90
21115;DHT22;10715;48.546;9.896;2023-09-18T06:22:36;15.20;99.90
21115;DHT22;10715;48.546;9.896;2023-09-18T06:25:02;15.30;99.90
21115;DHT22;10715;48.546;9.896;2023-09-18T06:27:27;15.30;99.90
21115;DHT22;10715;48.546;9.896;2023-09-18T06:29:53;15.30;99.90
21115;DHT22;10715;48.546;9.896;2023-09-18T06:32:19;15.40;99.90
21115;DHT22;10715;48.546;9.896;2023-09-18T06:34:44;15.50;99.90
21115;DHT22;10715;48.546;9.896;2023-09-18T06:37:10;15.50;99.90
21115;DHT22;10715;48.546;9.896;2023-09-18T06:39:39;15.60;99.90
21115;DHT22;10715;48.546;9.896;2023-09-18T06:42:05;15.70;99.90
21115;DHT22;10715;48.546;9.896;2023-09-18T06:44:31;15.70;99.90
21115;DHT22;10715;48.546;9.896;2023-09-18T06:46:56;15.80;99.90
21115;DHT22;10715;48.546;9.896;2023-09-18T06:49:22;15.80;99.90
21115;DHT22;10715;48.546;9.896;2023-09-18T06:51:48;15.90;99.90
21115;DHT22;10715;48.546;9.896;2023-09-18T06:54:13;15.90;99.90
21115;DHT22;10715;48.546;9.896;2023-09-18T06:56:39;16.00;99.90
21115;DHT22;10715;48.546;9.896;2023-09-18T06:59:07;16.10;99.90
21115;DHT22;10715;48.546;9.896;2023-09-18T07:01:32;16.10;99.90
21115;DHT22;10715;48.546;9.896;2023-09-18T07:03:59;16.20;99.90
21115;DHT22;10715;48.546;9.896;2023-09-18T07:06:25;16.30;99.90
21115;DHT22;10715;48.546;9.896;2023-09-18T07:08:51;16.40;99.90
21115;DHT22;10715;48.546;9.896;2023-09-18T07:11:17;16.40;99.90
21115;DHT22;10715;48.546;9.896;2023-09-18T07:13:43;16.50;99.90
21115;DHT22;10715;48.546;9.896;2023-09-18T07:16:09;16.60;99.90
21115;DHT22;10715;48.546;9.896;2023-09-18T07:18:36;16.60;99.90
21115;DHT22;10715;48.546;9.896;2023-09-18T07:21:01;16.70;99.90
21115;DHT22;10715;48.546;9.896;2023-09-18T07:23:27;16.80;99.90
21115;DHT22;10715;48.546;9.896;2023-09-18T07:25:53;16.80;99.90
21115;DHT22;10715;48.546;9.896;2023-09-18T07:28:19;16.90;99.90
21115;DHT22;10715;48.546;9.896;2023-09-18T07:30:45;16.90;99.90
21115;DHT22;10715;48.546;9.896;2023-09-18T07:33:11;17.00;99.90
21115;DHT22;10715;48.546;9.896;2023-09-18T07:35:38;17.00;99.90
21115;DHT22;10715;48.546;9.896;2023-09-18T07:38:04;17.10;99.90
21115;DHT22;10715;48.546;9.896;2023-09-18T07:40:30;17.20;99.90
21115;DHT22;10715;48.546;9.896;2023-09-18T07:42:55;17.20;99.90
21115;DHT22;10715;48.546;9.896;2023-09-18T07:45:23;17.30;99.90
21115;DHT22;10715;48.546;9.896;2023-09-18T07:47:49;17.40;99.90
21115;DHT22;10715;48.546;9.896;2023-09-18T07:50:15;17.50;99.90
21115;DHT22;10715;48.546;9.896;2023-09-18T07:52:40;17.50;99.90
21115;DHT22;10715;48.546;9.896;2023-09-18T07:55:07;17.60;99.90
21115;DHT22;10715;48.546;9.896;2023-09-18T07:57:32;17.70;99.90
21115;DHT22;10715;48.546;9.896;2023-09-18T08:00:00;17.70;99.90
21115;DHT22;10715;48.546;9.896;2023-09-18T08:02:33;17.80;99.90
21115;DHT22;10715;48.546;9.896;2023-09-18T08:05:00;17.90;99.90
21115;DHT22;10715;48.546;9.896;2023-09-18T08:07:27;18.00;99.90
21115;DHT22;10715;48.546;9.896;2023-09-18T08:09:54;18.00;99.90
21115;DHT22;10715;48.546;9.896;2023-09-18T08:12:19;18.10;99.90
21115;DHT22;10715;48.546;9.896;2023-09-18T08:14:45;18.10;99.90
21115;DHT22;10715;48.546;9.896;2023-09-18T08:17:12;18.20;99.90
21115;DHT22;10715;48.546;9.896;2023-09-18T08:19:38;18.30;99.90
21115;DHT22;10715;48.546;9.896;2023-09-18T08:22:05;18.40;99.90
21115;DHT22;10715;48.546;9.896;2023-09-18T08:24:30;18.50;99.90
21115;DHT22;10715;48.546;9.896;2023-09-18T08:26:56;18.50;99.90
21115;DHT22;10715;48.546;9.896;2023-09-18T08:29:22;18.60;99.90
21115;DHT22;10715;48.546;9.896;2023-09-18T08:31:48;18.60;99.90
21115;DHT22;10715;48.546;9.896;2023-09-18T08:34:14;18.70;99.90
21115;DHT22;10715;48.546;9.896;2023-09-18T08:36:40;18.70;99.90
21115;DHT22;10715;48.546;9.896;2023-09-18T08:39:06;18.80;99.90
21115;DHT22;10715;48.546;9.896;2023-09-18T08:41:32;18.90;99.90
21115;DHT22;10715;48.546;9.896;2023-09-18T08:44:02;18.90;99.90
21115;DHT22;10715;48.546;9.896;2023-09-18T08:46:29;19.00;99.90
21115;DHT22;10715;48.546;9.896;2023-09-18T08:48:59;19.00;99.90
21115;DHT22;10715;48.546;9.896;2023-09-18T08:51:26;19.10;99.90
21115;DHT22;10715;48.546;9.896;2023-09-18T08:53:53;19.10;99.90
21115;DHT22;10715;48.546;9.896;2023-09-18T08:56:21;19.10;99.90
21115;DHT22;10715;48.546;9.896;2023-09-18T08:58:47;19.20;99.90
21115;DHT22;10715;48.546;9.896;2023-09-18T09:01:13;19.20;99.90
21115;DHT22;10715;48.546;9.896;2023-09-18T09:03:40;19.20;99.90
21115;DHT22;10715;48.546;9.896;2023-09-18T09:06:07;19.20;99.90
21115;DHT22;10715;48.546;9.896;2023-09-18T09:08:35;19.30;99.90
21115;DHT22;10715;48.546;9.896;2023-09-18T09:11:01;19.20;99.90
21115;DHT22;10715;48.546;9.896;2023-09-18T09:13:27;19.20;99.90
21115;DHT22;10715;48.546;9.896;2023-09-18T09:15:54;19.30;99.90
21115;DHT22;10715;48.546;9.896;2023-09-18T09:18:22;19.30;99.90
21115;DHT22;10715;48.546;9.896;2023-09-18T09:20:59;19.30;99.90
21115;DHT22;10715;48.546;9.896;2023-09-18T09:23:30;19.30;99.90
21115;DHT22;10715;48.546;9.896;2023-09-18T09:26:15;19.30;99.90
21115;DHT22;10715;48.546;9.896;2023-09-18T09:28:42;19.30;99.90
21115;DHT22;10715;48.546;9.896;2023-09-18T09:31:09;19.30;99.90
21115;DHT22;10715;48.546;9.896;2023-09-18T09:33:36;19.30;99.90
21115;DHT22;10715;48.546;9.896;2023-09-18T09:36:07;19.30;99.90
21115;DHT22;10715;48.546;9.896;2023-09-18T09:38:34;19.30;99.90
21115;DHT22;10715;48.546;9.896;2023-09-18T09:41:00;19.30;99.90
21115;DHT22;10715;48.546;9.896;2023-09-18T09:43:31;19.30;99.90
21115;DHT22;10715;48.546;9.896;2023-09-18T09:45:59;19.40;99.90
21115;DHT22;10715;48.546;9.896;2023-09-18T09:48:25;19.30;99.90
21115;DHT22;10715;48.546;9.896;2023-09-18T09:50:52;19.30;99.90
21115;DHT22;10715;48.546;9.896;2023-09-18T09:53:18;19.30;99.90
21115;DHT22;10715;48.546;9.896;2023-09-18T09:55:44;19.30;99.90
21115;DHT22;10715;48.546;9.896;2023-09-18T09:58:11;19.30;99.90
21115;DHT22;10715;48.546;9.896;2023-09-18T10:00:43;19.30;99.90
21115;DHT22;10715;48.546;9.896;2023-09-18T10:03:16;19.20;99.90
21115;DHT22;10715;48.546;9.896;2023-09-18T10:05:44;19.20;99.90
21115;DHT22;10715;48.546;9.896;2023-09-18T10:08:17;19.20;99.90
21115;DHT22;10715;48.546;9.896;2023-09-18T10:10:47;19.10;99.90
21115;DHT22;10715;48.546;9.896;2023-09-18T10:13:32;19.10;99.90
21115;DHT22;10715;48.546;9.896;2023-09-18T10:15:59;19.10;99.90
21115;DHT22;10715;48.546;9.896;2023-09-18T10:18:53;19.10;99.90
21115;DHT22;10715;48.546;9.896;2023-09-18T10:21:30;19.00;99.90
21115;DHT22;10715;48.546;9.896;2023-09-18T10:24:25;19.00;99.90
21115;DHT22;10715;48.546;9.896;2023-09-18T10:26:56;19.00;99.90
21115;DHT22;10715;48.546;9.896;2023-09-18T10:29:24;18.90;99.90
21115;DHT22;10715;48.546;9.896;2023-09-18T10:31:50;18.90;99.90
21115;DHT22;10715;48.546;9.896;2023-09-18T10:34:18;18.80;99.90
21115;DHT22;10715;48.546;9.896;2023-09-18T10:36:47;18.70;99.90
21115;DHT22;10715;48.546;9.896;2023-09-18T10:39:13;18.60;99.90
21115;DHT22;10715;48.546;9.896;2023-09-18T10:41:50;18.50;99.90
21115;DHT22;10715;48.546;9.896;2023-09-18T10:44:16;18.50;99.90
21115;DHT22;10715;48.546;9.896;2023-09-18T10:46:45;18.40;99.90
21115;DHT22;10715;48.546;9.896;2023-09-18T10:49:11;18.30;99.90
21115;DHT22;10715;48.546;9.896;2023-09-18T10:51:37;18.30;99.90
21115;DHT22;10715;48.546;9.896;2023-09-18T10:54:13;18.20;99.90
21115;DHT22;10715;48.546;9.896;2023-09-18T10:56:43;18.20;99.90
21115;DHT22;10715;48.546;9.896;2023-09-18T10:59:10;18.10;99.90
21115;DHT22;10715;48.546;9.896;2023-09-18T11:01:36;18.00;99.90
21115;DHT22;10715;48.546;9.896;2023-09-18T11:04:04;18.00;99.90
21115;DHT22;10715;48.546;9.896;2023-09-18T11:09:26;17.90;99.90
21115;DHT22;10715;48.546;9.896;2023-09-18T11:14:23;17.80;99.90
21115;DHT22;10715;48.546;9.896;2023-09-18T11:16:50;17.80;99.90
21115;DHT22;10715;48.546;9.896;2023-09-18T11:19:19;17.80;99.90
21115;DHT22;10715;48.546;9.896;2023-09-18T11:21:45;17.70;99.90
21115;DHT22;10715;48.546;9.896;2023-09-18T11:24:21;17.70;99.90
21115;DHT22;10715;48.546;9.896;2023-09-18T11:26:49;17.60;99.90
21115;DHT22;10715;48.546;9.896;2023-09-18T11:29:22;17.60;99.90
21115;DHT22;10715;48.546;9.896;2023-09-18T11:31:55;17.50;99.90
21115;DHT22;10715;48.546;9.896;2023-09-18T11:34:22;17.50;99.90
21115;DHT22;10715;48.546;9.896;2023-09-18T11:36:49;17.40;99.90
21115;DHT22;10715;48.546;9.896;2023-09-18T11:39:36;17.40;99.90
21115;DHT22;10715;48.546;9.896;2023-09-18T11:42:18;17.30;99.90
21115;DHT22;10715;48.546;9.896;2023-09-18T11:44:45;17.20;99.90
21115;DHT22;10715;48.546;9.896;2023-09-18T11:47:15;17.20;99.90
21115;DHT22;10715;48.546;9.896;2023-09-18T11:49:53;17.20;99.90
21115;DHT22;10715;48.546;9.896;2023-09-18T11:52:27;17.20;99.90
21115;DHT22;10715;48.546;9.896;2023-09-18T11:54:56;17.20;99.90
21115;DHT22;10715;48.546;9.896;2023-09-18T11:57:23;17.10;99.90
21115;DHT22;10715;48.546;9.896;2023-09-18T11:59:49;17.10;99.90
21115;DHT22;10715;48.546;9.896;2023-09-18T12:02:29;17.00;99.90
21115;DHT22;10715;48.546;9.896;2023-09-18T12:05:17;17.00;99.90
21115;DHT22;10715;48.546;9.896;2023-09-18T12:07:46;17.00;99.90
21115;DHT22;10715;48.546;9.896;2023-09-18T12:10:16;17.00;99.90
21115;DHT22;10715;48.546;9.896;2023-09-18T12:12:43;16.90;99.90
21115;DHT22;10715;48.546;9.896;2023-09-18T12:15:13;16.90;99.90
21115;DHT22;10715;48.546;9.896;2023-09-18T12:17:40;16.90;99.90
21115;DHT22;10715;48.546;9.896;2023-09-18T12:20:06;16.90;99.90
21115;DHT22;10715;48.546;9.896;2023-09-18T12:22:32;16.90;99.90
21115;DHT22;10715;48.546;9.896;2023-09-18T12:25:11;16.90;99.90
21115;DHT22;10715;48.546;9.896;2023-09-18T12:27:37;16.90;99.90
21115;DHT22;10715;48.546;9.896;2023-09-18T12:30:05;16.90;99.90
21115;DHT22;10715;48.546;9.896;2023-09-18T12:32:31;16.80;99.90
21115;DHT22;10715;48.546;9.896;2023-09-18T12:34:58;16.80;99.90
21115;DHT22;10715;48.546;9.896;2023-09-18T12:37:24;16.80;99.90
21115;DHT22;10715;48.546;9.896;2023-09-18T12:39:50;16.80;99.90
21115;DHT22;10715;48.546;9.896;2023-09-18T12:42:18;16.80;99.90
21115;DHT22;10715;48.546;9.896;2023-09-18T12:44:47;16.80;99.90
21115;DHT22;10715;48.546;9.896;2023-09-18T12:47:13;16.80;99.90
21115;DHT22;10715;48.546;9.896;2023-09-18T12:49:38;16.80;99.90
21115;DHT22;10715;48.546;9.896;2023-09-18T12:52:06;16.80;99.90
21115;DHT22;10715;48.546;9.896;2023-09-18T12:54:45;16.80;99.90
21115;DHT22;10715;48.546;9.896;2023-09-18T12:57:20;16.80;99.90
21115;DHT22;10715;48.546;9.896;2023-09-18T12:59:46;16.80;99.90
21115;DHT22;10715;48.546;9.896;2023-09-18T13:02:15;16.80;99.90
21115;DHT22;10715;48.546;9.896;2023-09-18T13:04:51;16.80;99.90
21115;DHT22;10715;48.546;9.896;2023-09-18T13:07:17;16.80;99.90
21115;DHT22;10715;48.546;9.896;2023-09-18T13:10:01;16.80;99.90
21115;DHT22;10715;48.546;9.896;2023-09-18T13:12:51;16.80;99.90
21115;DHT22;10715;48.546;9.896;2023-09-18T13:15:26;16.80;99.90
21115;DHT22;10715;48.546;9.896;2023-09-18T13:17:53;16.80;99.90
21115;DHT22;10715;48.546;9.896;2023-09-18T13:20:28;16.80;99.90
21115;DHT22;10715;48.546;9.896;2023-09-18T13:22:59;16.80;99.90
21115;DHT22;10715;48.546;9.896;2023-09-18T13:25:36;16.90;99.90
21115;DHT22;10715;48.546;9.896;2023-09-18T13:28:05;16.90;99.90
21115;DHT22;10715;48.546;9.896;2023-09-18T13:30:31;16.90;99.90
21115;DHT22;10715;48.546;9.896;2023-09-18T13:33:04;16.90;99.90
21115;DHT22;10715;48.546;9.896;2023-09-18T13:35:32;17.00;99.90
21115;DHT22;10715;48.546;9.896;2023-09-18T13:37:57;16.90;99.90
21115;DHT22;10715;48.546;9.896;2023-09-18T13:40:23;17.00;99.90
21115;DHT22;10715;48.546;9.896;2023-09-18T13:42:49;17.00;99.90
21115;DHT22;10715;48.546;9.896;2023-09-18T13:45:15;17.00;99.90
21115;DHT22;10715;48.546;9.896;2023-09-18T13:47:44;17.00;99.90
21115;DHT22;10715;48.546;9.896;2023-09-18T13:50:11;17.00;99.90
21115;DHT22;10715;48.546;9.896;2023-09-18T13:52:38;17.00;99.90
21115;DHT22;10715;48.546;9.896;2023-09-18T13:55:04;17.00;99.90
21115;DHT22;10715;48.546;9.896;2023-09-18T13:57:35;17.00;99.90
21115;DHT22;10715;48.546;9.896;2023-09-18T14:00:03;17.00;99.90
21115;DHT22;10715;48.546;9.896;2023-09-18T14:02:36;17.00;99.90
21115;DHT22;10715;48.546;9.896;2023-09-18T14:05:02;17.00;99.90
21115;DHT22;10715;48.546;9.896;2023-09-18T14:07:29;17.10;99.90
21115;DHT22;10715;48.546;9.896;2023-09-18T14:09:55;17.10;99.90
21115;DHT22;10715;48.546;9.896;2023-09-18T14:12:21;17.10;99.90
21115;DHT22;10715;48.546;9.896;2023-09-18T14:14:47;17.10;99.90
21115;DHT22;10715;48.546;9.896;2023-09-18T14:17:13;17.20;99.90
21115;DHT22;10715;48.546;9.896;2023-09-18T14:19:39;17.20;99.90
21115;DHT22;10715;48.546;9.896;2023-09-18T14:22:05;17.10;99.90
21115;DHT22;10715;48.546;9.896;2023-09-18T14:24:32;17.20;99.90
21115;DHT22;10715;48.546;9.896;2023-09-18T14:27:00;17.20;99.90
21115;DHT22;10715;48.546;9.896;2023-09-18T14:29:26;17.20;99.90
21115;DHT22;10715;48.546;9.896;2023-09-18T14:31:52;17.20;99.90
21115;DHT22;10715;48.546;9.896;2023-09-18T14:34:18;17.20;99.90
21115;DHT22;10715;48.546;9.896;2023-09-18T14:36:44;17.30;99.90
21115;DHT22;10715;48.546;9.896;2023-09-18T14:39:10;17.30;99.90
21115;DHT22;10715;48.546;9.896;2023-09-18T14:41:37;17.30;99.90
21115;DHT22;10715;48.546;9.896;2023-09-18T14:44:04;17.30;99.90
21115;DHT22;10715;48.546;9.896;2023-09-18T14:46:31;17.30;99.90
21115;DHT22;10715;48.546;9.896;2023-09-18T14:49:03;17.30;99.90
21115;DHT22;10715;48.546;9.896;2023-09-18T14:51:29;17.40;99.90
21115;DHT22;10715;48.546;9.896;2023-09-18T14:53:57;17.40;99.90
21115;DHT22;10715;48.546;9.896;2023-09-18T14:56:23;17.30;99.90
21115;DHT22;10715;48.546;9.896;2023-09-18T14:58:48;17.30;99.90
21115;DHT22;10715;48.546;9.896;2023-09-18T15:01:15;17.40;99.90
21115;DHT22;10715;48.546;9.896;2023-09-18T15:03:41;17.40;99.90
21115;DHT22;10715;48.546;9.896;2023-09-18T15:06:07;17.40;99.90
21115;DHT22;10715;48.546;9.896;2023-09-18T15:08:36;17.40;99.90
21115;DHT22;10715;48.546;9.896;2023-09-18T15:11:02;17.50;99.90
21115;DHT22;10715;48.546;9.896;2023-09-18T15:13:32;17.40;99.90
21115;DHT22;10715;48.546;9.896;2023-09-18T15:15:58;17.50;99.90
21115;DHT22;10715;48.546;9.896;2023-09-18T15:18:25;17.50;99.90
21115;DHT22;10715;48.546;9.896;2023-09-18T15:20:51;17.50;99.90
21115;DHT22;10715;48.546;9.896;2023-09-18T15:23:21;17.40;99.90
21115;DHT22;10715;48.546;9.896;2023-09-18T15:25:48;17.50;99.90
21115;DHT22;10715;48.546;9.896;2023-09-18T15:28:19;17.50;99.90
21115;DHT22;10715;48.546;9.896;2023-09-18T15:30:45;17.50;99.90
21115;DHT22;10715;48.546;9.896;2023-09-18T15:33:10;17.50;99.90
21115;DHT22;10715;48.546;9.896;2023-09-18T15:35:37;17.50;99.90
21115;DHT22;10715;48.546;9.896;2023-09-18T15:38:03;17.50;99.90
21115;DHT22;10715;48.546;9.896;2023-09-18T15:40:29;17.50;99.90
21115;DHT22;10715;48.546;9.896;2023-09-18T15:42:55;17.40;99.90